EW8557 Weather Reports


Display with metric or nautical units.
time (UTC)temp
F
wind
direction
speed
MPH
gust
MPH
rain 1hr
in
rain 24hr
in
rain mn
in
humidity
%
barometer
mb
20210925224555 77 336 2.0 6.0 0.00 0.00 0.00 57 1016.0
20210925223116 78 344 2.0 5.0 0.00 0.00 0.00 54 1016.0
20210925221555 78 353 4.0 8.0 0.00 0.00 0.00 52 1015.8
20210925220115 79 8 3.0 7.0 0.00 0.00 0.00 53 1015.9
20210925214540 79 8 3.0 6.0 0.00 0.00 0.00 51 1015.9
20210925213037 79 2 4.0 6.0 0.00 0.00 0.00 53 1015.8
20210925211608 79 16 5.0 9.0 0.00 0.00 0.00 52 1015.9
20210925210032 80 14 3.0 7.0 0.00 0.00 0.00 52 1016.0
20210925204532 80 28 3.0 7.0 0.00 0.00 0.00 51 1016.0
20210925203020 79 311 2.0 8.0 0.00 0.00 0.00 50 1016.2
20210925201528 79 19 4.0 10.0 0.00 0.00 0.00 49 1016.2
20210925200035 79 345 1.0 7.0 0.00 0.00 0.00 52 1016.4
20210925194751 79 23 4.0 10.0 0.00 0.00 0.00 50 1016.5
20210925193109 79 302 3.0 8.0 0.00 0.00 0.00 50 1016.6
20210925191609 79 47 5.0 9.0 0.00 0.00 0.00 50 1016.8
20210925190124 79 340 4.0 7.0 0.00 0.00 0.00 51 1017.0
20210925184544 79 38 3.0 9.0 0.00 0.00 0.00 51 1017.1
20210925183118 78 356 3.0 11.0 0.00 0.00 0.00 50 1017.3
20210925181554 78 16 3.0 9.0 0.00 0.00 0.00 51 1017.3
20210925180028 78 62 3.0 8.0 0.00 0.00 0.00 49 1017.5
20210925174530 77 268 2.0 8.0 0.00 0.00 0.00 51 1017.6
20210925173045 77 63 6.0 10.0 0.00 0.00 0.00 49 1017.8
20210925171540 77 75 3.0 8.0 0.00 0.00 0.00 50 1017.8
20210925170012 76 323 4.0 10.0 0.00 0.00 0.00 53 1018.1
20210925164508 76 49 4.0 8.0 0.00 0.00 0.00 49 1018.3
20210925161618 75 57 3.0 9.0 0.00 0.00 0.00 51 1018.4
20210925160110 75 348 3.0 7.0 0.00 0.00 0.00 54 1018.5
20210925154654 74 332 3.0 6.0 0.00 0.00 0.00 59 1018.5
20210925153147 73 352 4.0 8.0 0.00 0.00 0.00 62 1018.7
20210925151540 72 356 3.0 8.0 0.00 0.00 0.00 64 1018.7
20210925150101 71 17 5.0 9.0 0.00 0.00 0.00 65 1018.8
20210925144544 70 34 0.0 0.0 0.00 0.00 0.00 70 1018.9
20210925143040 69 34 0.0 0.0 0.00 0.00 0.00 73 1018.9
20210925141533 67 69 0.0 0.0 0.00 0.00 0.00 74 1018.8
20210925140019 66 48 0.0 0.0 0.00 0.00 0.00 74 1018.7
20210925134513 65 37 2.0 5.0 0.00 0.00 0.00 74 1018.7
20210925133024 64 37 0.0 4.0 0.00 0.00 0.00 69 1018.4
20210925131509 62 9 0.0 0.0 0.00 0.00 0.00 63 1018.6
20210925130209 60 11 0.0 0.0 0.00 0.00 0.00 62 1018.5
20210925124733 59 11 0.0 0.0 0.00 0.00 0.00 52 1018.6
20210925123135 57 358 0.0 0.0 0.00 0.00 0.00 43 1018.3
20210925121629 55 355 0.0 0.0 0.00 0.00 0.00 24 1018.2
20210925120051 53 355 0.0 0.0 0.00 0.00 0.00 11 1017.9
20210925114624 53 355 0.0 0.0 0.00 0.00 0.00 17 1017.8
20210925113106 53 355 0.0 0.0 0.00 0.00 0.00 13 1017.7
20210925111608 52 355 0.0 0.0 0.00 0.00 0.00 6 1017.5
20210925110035 52 355 0.0 0.0 0.00 0.00 0.00 20 1017.6
20210925104530 53 355 0.0 0.0 0.00 0.00 0.00 37 1017.3
20210925103019 54 355 0.0 0.0 0.00 0.00 0.00 41 1017.1
20210925101533 55 355 0.0 0.0 0.00 0.00 0.00 48 1017.0
20210925100006 55 355 0.0 0.0 0.00 0.00 0.00 47 1017.1
20210925094504 55 13 0.0 0.0 0.00 0.00 0.00 51 1017.1
20210925093238 56 358 0.0 0.0 0.00 0.00 0.00 53 1017.1
20210925091637 56 349 0.0 0.0 0.00 0.00 0.00 51 1016.9
20210925090215 56 9 0.0 0.0 0.00 0.00 0.00 51 1016.8
20210925084600 56 353 0.0 0.0 0.00 0.00 0.00 45 1016.8
20210925083050 56 9 0.0 0.0 0.00 0.00 0.00 51 1016.8
20210925081558 56 351 0.0 0.0 0.00 0.00 0.00 49 1016.7
20210925080105 55 358 0.0 0.0 0.00 0.00 0.00 39 1016.8
20210925074627 55 358 0.0 0.0 0.00 0.00 0.00 36 1016.8
20210925073058 56 358 0.0 0.0 0.00 0.00 0.00 43 1016.9
20210925071542 56 358 0.0 0.0 0.00 0.00 0.00 43 1016.8
20210925070030 56 358 0.0 0.0 0.00 0.00 0.00 39 1016.9
20210925064525 56 356 0.0 0.0 0.00 0.00 0.00 40 1016.8
20210925063028 56 356 0.0 0.0 0.00 0.00 0.00 42 1016.7
20210925061648 57 359 0.0 0.0 0.00 0.00 0.00 46 1016.8
20210925060135 56 358 0.0 0.0 0.00 0.00 0.00 30 1016.8
20210925054600 56 22 0.0 0.0 0.00 0.00 0.00 28 1016.7
20210925053116 56 22 0.0 0.0 0.00 0.00 0.00 15 1016.8
20210925051551 55 22 0.0 0.0 0.00 0.00 0.00 11 1016.9
20210925050059 56 22 0.0 0.0 0.00 0.00 0.00 18 1016.9
20210925044541 56 22 0.0 0.0 0.00 0.00 0.00 27 1016.8
20210925024829 60 22 0.0 0.0 0.00 0.00 0.00 64 1017.1
20210925023127 61 22 0.0 0.0 0.00 0.00 0.00 67 1017.0
20210925021639 61 2 0.0 0.0 0.00 0.00 0.00 66 1016.8
20210925020059 61 342 0.0 0.0 0.00 0.00 0.00 66 1016.7
20210925014650 61 341 0.0 0.0 0.00 0.00 0.00 66 1016.7
20210925013045 62 341 0.0 0.0 0.00 0.00 0.00 67 1016.5
20210925011542 62 341 0.0 0.0 0.00 0.00 0.00 70 1016.5
20210925004555 63 351 0.0 0.0 0.00 0.00 0.00 71 1016.2
20210924233111 71 20 0.0 1.0 0.00 0.00 0.00 68 1015.9